createdAt,value
2022-09-16T00:01:44.195Z,100.00
2022-09-16T00:04:55.840Z,100.00
2022-09-16T00:08:07.823Z,100.00
2022-09-16T00:11:20.959Z,100.00
2022-09-16T00:14:32.743Z,100.00
2022-09-16T00:17:45.048Z,100.00
2022-09-16T00:20:58.760Z,100.00
2022-09-16T00:24:13.286Z,100.00
2022-09-16T00:27:25.782Z,100.00
2022-09-16T00:30:38.042Z,100.00
2022-09-16T00:33:50.191Z,100.00
2022-09-16T00:37:03.434Z,100.00
2022-09-16T00:40:16.892Z,100.00
2022-09-16T00:43:28.692Z,100.00
2022-09-16T00:46:46.440Z,100.00
2022-09-16T00:50:01.405Z,100.00
2022-09-16T00:53:17.310Z,100.00
2022-09-16T00:56:31.093Z,100.00
2022-09-16T00:59:47.177Z,100.00
2022-09-16T01:02:59.461Z,100.00
2022-09-16T01:06:14.116Z,100.00
2022-09-16T01:09:29.402Z,100.00
2022-09-16T01:12:42.487Z,100.00
2022-09-16T01:16:00.735Z,100.00
2022-09-16T01:19:17.377Z,100.00
2022-09-16T01:22:42.640Z,100.00
2022-09-16T01:26:07.246Z,100.00
2022-09-16T01:30:02.513Z,100.00
2022-09-16T01:33:22.037Z,100.00
2022-09-16T01:36:44.945Z,100.00
2022-09-16T01:40:03.328Z,100.00
2022-09-16T01:43:21.376Z,100.00
2022-09-16T01:46:40.676Z,100.00
2022-09-16T01:49:59.885Z,100.00
2022-09-16T01:53:16.902Z,100.00
2022-09-16T01:56:34.229Z,100.00
2022-09-16T01:59:50.629Z,100.00
2022-09-16T02:03:06.035Z,100.00
2022-09-16T02:06:23.128Z,100.00
2022-09-16T02:09:36.118Z,100.00
2022-09-16T02:12:50.048Z,100.00
2022-09-16T02:16:06.045Z,100.00
2022-09-16T02:19:22.654Z,100.00
2022-09-16T02:22:40.413Z,100.00
2022-09-16T02:25:55.427Z,100.00
2022-09-16T02:29:10.875Z,100.00
2022-09-16T02:32:24.467Z,100.00
2022-09-16T02:35:37.053Z,100.00
2022-09-16T02:38:54.601Z,100.00
2022-09-16T02:42:07.772Z,100.00
2022-09-16T02:45:20.087Z,100.00
2022-09-16T02:48:40.441Z,100.00
2022-09-16T02:51:59.595Z,100.00
2022-09-16T02:55:17.609Z,100.00
2022-09-16T02:58:29.784Z,100.00
2022-09-16T03:01:45.565Z,100.00
2022-09-16T03:04:57.488Z,100.00
2022-09-16T03:08:09.842Z,100.00
2022-09-16T03:11:52.510Z,100.00
2022-09-16T03:15:43.691Z,100.00
2022-09-16T03:19:12.945Z,100.00
2022-09-16T03:22:33.134Z,100.00
2022-09-16T03:25:55.173Z,100.00
2022-09-16T03:29:17.661Z,100.00
2022-09-16T03:32:34.674Z,100.00
2022-09-16T03:35:51.827Z,100.00
2022-09-16T03:39:05.100Z,100.00
2022-09-16T03:42:18.361Z,100.00
2022-09-16T03:45:30.121Z,100.00
2022-09-16T03:48:41.823Z,100.00
2022-09-16T03:51:53.442Z,100.00
2022-09-16T03:55:05.238Z,100.00
2022-09-16T03:58:16.927Z,100.00
2022-09-16T04:01:28.640Z,100.00
2022-09-16T04:04:40.405Z,100.00
2022-09-16T04:07:54.464Z,100.00
2022-09-16T04:11:08.421Z,100.00
2022-09-16T04:14:20.387Z,100.00
2022-09-16T04:17:32.551Z,100.00
2022-09-16T04:20:47.253Z,100.00
2022-09-16T04:23:59.455Z,100.00
2022-09-16T04:27:11.465Z,100.00
2022-09-16T04:30:23.949Z,100.00
2022-09-16T04:33:38.940Z,100.00
2022-09-16T04:36:50.872Z,100.00
2022-09-16T04:40:04.970Z,100.00
2022-09-16T04:43:16.615Z,100.00
2022-09-16T04:46:28.830Z,100.00
2022-09-16T04:49:40.599Z,100.00
2022-09-16T04:52:52.179Z,100.00
2022-09-16T04:56:14.142Z,100.00
2022-09-16T04:59:26.541Z,100.00
2022-09-16T05:02:38.257Z,100.00
2022-09-16T05:05:50.134Z,100.00
2022-09-16T05:09:03.377Z,100.00
2022-09-16T05:12:15.875Z,100.00
2022-09-16T05:15:27.846Z,100.00
2022-09-16T05:18:39.892Z,100.00
2022-09-16T05:21:51.568Z,100.00
2022-09-16T05:25:04.277Z,100.00
2022-09-16T05:28:16.082Z,100.00
2022-09-16T05:31:30.580Z,100.00
2022-09-16T05:34:42.359Z,100.00
2022-09-16T05:37:55.513Z,100.00
2022-09-16T05:41:08.864Z,100.00
2022-09-16T05:44:20.753Z,100.00
2022-09-16T05:47:32.460Z,100.00
2022-09-16T05:50:44.134Z,100.00
2022-09-16T05:53:57.423Z,100.00
2022-09-16T05:57:09.595Z,100.00
2022-09-16T06:00:23.023Z,100.00
2022-09-16T06:03:35.810Z,100.00
2022-09-16T06:06:49.535Z,100.00
2022-09-16T06:10:01.460Z,100.00
2022-09-16T06:13:13.350Z,99.00
2022-09-16T06:16:25.947Z,95.77
2022-09-16T06:19:37.959Z,93.83
2022-09-16T06:22:49.982Z,92.60
2022-09-16T06:26:09.483Z,89.42
2022-09-16T06:29:22.721Z,87.82
2022-09-16T06:32:38.236Z,84.57
2022-09-16T06:35:51.599Z,82.94
2022-09-16T06:39:04.150Z,84.08
2022-09-16T06:42:19.043Z,82.21
2022-09-16T06:45:30.832Z,82.59
2022-09-16T06:48:42.817Z,79.62
2022-09-16T06:51:55.191Z,78.04
2022-09-16T06:55:07.073Z,77.58
2022-09-16T06:58:18.682Z,77.52
2022-09-16T07:01:32.760Z,76.21
2022-09-16T07:04:44.832Z,76.00
2022-09-16T07:07:58.010Z,76.64
2022-09-16T07:11:12.204Z,72.33
2022-09-16T07:14:24.122Z,70.92
2022-09-16T07:17:35.886Z,71.08
2022-09-16T07:20:48.129Z,71.78
2022-09-16T07:24:04.821Z,72.59
2022-09-16T07:27:16.709Z,73.36
2022-09-16T07:30:30.267Z,73.86
2022-09-16T07:33:46.231Z,71.27
2022-09-16T07:36:58.487Z,69.97
2022-09-16T07:40:13.605Z,69.08
2022-09-16T07:43:25.539Z,66.21
2022-09-16T07:46:40.486Z,66.92
2022-09-16T07:49:54.388Z,66.28
2022-09-16T07:53:06.098Z,65.60
2022-09-16T07:56:21.869Z,65.58
2022-09-16T07:59:33.773Z,65.53
2022-09-16T08:02:45.842Z,67.46
2022-09-16T08:05:58.143Z,68.67
2022-09-16T08:09:34.291Z,71.67
2022-09-16T08:12:23.772Z,74.03
2022-09-16T08:15:35.394Z,76.36
2022-09-16T08:18:48.195Z,78.93
2022-09-16T08:22:00.421Z,75.74
2022-09-16T08:25:13.959Z,72.45
2022-09-16T08:28:25.802Z,72.38
2022-09-16T08:31:37.603Z,70.39
2022-09-16T08:34:49.479Z,68.80
2022-09-16T08:38:01.602Z,66.55
2022-09-16T08:41:27.074Z,67.25
2022-09-16T08:44:46.647Z,67.43
2022-09-16T08:48:16.868Z,66.35
2022-09-16T08:51:30.588Z,68.54
2022-09-16T08:54:48.976Z,70.49
2022-09-16T08:58:07.355Z,72.43
2022-09-16T09:01:27.801Z,72.77
2022-09-16T09:04:39.664Z,74.91
2022-09-16T09:08:06.060Z,77.03
2022-09-16T09:11:24.863Z,76.80
2022-09-16T09:14:47.225Z,78.95
2022-09-16T09:18:15.190Z,80.26
2022-09-16T09:21:32.408Z,79.88
2022-09-16T09:25:03.019Z,81.19
2022-09-16T09:28:36.103Z,82.28
2022-09-16T09:31:55.513Z,84.80
2022-09-16T09:35:29.686Z,81.68
2022-09-16T09:38:54.942Z,77.24
2022-09-16T09:42:16.224Z,73.55
2022-09-16T09:45:34.174Z,71.65
2022-09-16T09:48:50.696Z,73.38
2022-09-16T09:52:08.530Z,73.35
2022-09-16T09:55:25.928Z,74.83
2022-09-16T09:58:44.066Z,75.27
2022-09-16T10:02:01.728Z,77.46
2022-09-16T10:05:19.008Z,76.42
2022-09-16T10:08:37.430Z,77.81
2022-09-16T10:11:59.836Z,77.95
2022-09-16T10:15:22.513Z,79.28
2022-09-16T10:18:37.772Z,80.01
2022-09-16T10:21:54.271Z,78.20
2022-09-16T10:25:10.321Z,80.60
2022-09-16T10:28:31.722Z,78.18
2022-09-16T10:31:46.558Z,78.02
2022-09-16T10:34:58.639Z,77.51
2022-09-16T10:38:20.355Z,76.53
2022-09-16T10:41:34.724Z,73.37
2022-09-16T10:44:48.666Z,74.35
2022-09-16T10:48:06.593Z,73.00
2022-09-16T10:51:39.561Z,70.63
2022-09-16T10:54:51.883Z,68.89
2022-09-16T10:58:19.917Z,69.98
2022-09-16T11:01:47.283Z,70.23
2022-09-16T11:05:06.206Z,70.72
2022-09-16T11:08:25.794Z,72.13
2022-09-16T11:11:54.604Z,70.10
2022-09-16T11:15:13.995Z,72.29
2022-09-16T11:18:52.246Z,70.19
2022-09-16T11:22:17.749Z,69.87
2022-09-16T11:25:54.565Z,72.51
2022-09-16T11:29:33.263Z,72.38
2022-09-16T11:33:03.569Z,71.29
2022-09-16T11:36:32.873Z,71.31
2022-09-16T11:40:06.347Z,70.17
2022-09-16T11:43:41.955Z,70.39
2022-09-16T11:47:04.246Z,68.91
2022-09-16T11:50:30.127Z,69.44
2022-09-16T11:53:58.165Z,63.35
2022-09-16T11:57:18.487Z,65.68
2022-09-16T12:00:30.659Z,64.77
2022-09-16T12:03:49.676Z,58.35
2022-09-16T12:07:08.028Z,58.64
2022-09-16T12:10:26.883Z,57.68
2022-09-16T12:13:44.845Z,58.97
2022-09-16T12:17:00.991Z,58.55
2022-09-16T12:20:20.767Z,59.93
2022-09-16T12:23:37.939Z,63.92
2022-09-16T12:26:51.775Z,67.33
2022-09-16T12:30:09.453Z,72.82
2022-09-16T12:33:26.804Z,75.04
2022-09-16T12:36:42.269Z,75.94
2022-09-16T12:39:56.169Z,74.61
2022-09-16T12:43:44.427Z,75.50
2022-09-16T12:47:18.270Z,79.02
2022-09-16T12:51:03.595Z,80.58
2022-09-16T12:55:06.625Z,81.13
2022-09-16T12:58:28.708Z,82.67
2022-09-16T13:01:51.012Z,80.11
2022-09-16T13:05:08.805Z,79.25
2022-09-16T13:08:30.516Z,80.36
2022-09-16T13:12:31.705Z,80.60
2022-09-16T13:15:13.181Z,79.87
2022-09-16T13:18:44.504Z,80.61
2022-09-16T13:22:08.389Z,80.58
2022-09-16T13:25:36.624Z,80.59
2022-09-16T13:28:54.164Z,81.73
2022-09-16T13:32:06.282Z,84.69
2022-09-16T13:35:44.724Z,85.28
2022-09-16T13:39:03.690Z,83.70
2022-09-16T13:42:26.172Z,87.04
2022-09-16T13:45:48.889Z,86.70
2022-09-16T13:49:25.042Z,85.63
2022-09-16T13:53:03.936Z,83.07
2022-09-16T13:56:39.084Z,82.51
2022-09-16T14:00:17.956Z,81.80
2022-09-16T14:03:53.505Z,80.49
2022-09-16T14:07:25.746Z,80.50
2022-09-16T14:10:46.841Z,80.92
2022-09-16T14:14:46.400Z,81.18
2022-09-16T14:17:51.468Z,82.03
2022-09-16T14:21:36.289Z,83.29
2022-09-16T14:28:44.791Z,84.30
2022-09-16T14:32:10.357Z,84.62
2022-09-16T14:35:27.302Z,84.49
2022-09-16T14:38:53.603Z,83.77
2022-09-16T14:42:11.287Z,82.14
2022-09-16T14:45:33.934Z,85.36
2022-09-16T14:49:04.045Z,85.67
2022-09-16T14:52:26.522Z,83.64
2022-09-16T14:55:40.607Z,83.07
2022-09-16T14:58:53.771Z,82.72
2022-09-16T15:02:10.117Z,81.11
2022-09-16T15:05:30.684Z,81.63
2022-09-16T15:08:47.690Z,82.01
2022-09-16T15:12:03.914Z,83.00
2022-09-16T15:15:25.293Z,81.87
2022-09-16T15:18:39.758Z,83.18
2022-09-16T15:21:52.364Z,84.30
2022-09-16T15:25:05.495Z,85.28
2022-09-16T15:28:25.711Z,83.79
2022-09-16T15:31:41.089Z,86.36
2022-09-16T15:34:55.297Z,86.53
2022-09-16T15:38:24.615Z,87.93
2022-09-16T15:41:36.841Z,85.51
2022-09-16T15:44:56.527Z,86.14
2022-09-16T15:48:14.209Z,86.84
2022-09-16T15:51:36.395Z,81.46
2022-09-16T15:54:55.829Z,81.30
2022-09-16T15:58:14.569Z,80.33
2022-09-16T16:01:41.377Z,81.16
2022-09-16T16:04:53.509Z,81.76
2022-09-16T16:08:10.084Z,81.79
2022-09-16T16:11:25.677Z,84.40
2022-09-16T16:14:39.423Z,83.00
2022-09-16T16:17:53.334Z,81.61
2022-09-16T16:21:08.697Z,84.05
2022-09-16T16:24:20.745Z,84.03
2022-09-16T16:27:34.654Z,82.85
2022-09-16T16:30:46.567Z,82.72
2022-09-16T16:33:58.432Z,84.57
2022-09-16T16:37:27.926Z,83.24
2022-09-16T16:40:27.023Z,83.12
2022-09-16T16:43:38.887Z,85.07
2022-09-16T16:46:50.619Z,87.23
2022-09-16T16:50:02.294Z,89.14
2022-09-16T16:53:14.130Z,90.03
2022-09-16T16:56:26.394Z,92.73
2022-09-16T16:59:38.189Z,94.49
2022-09-16T17:02:50.453Z,96.81
2022-09-16T17:06:02.340Z,98.20
2022-09-16T17:09:17.040Z,98.60
2022-09-16T17:12:28.835Z,98.54
2022-09-16T17:15:41.337Z,99.26
2022-09-16T17:18:54.780Z,100.00
2022-09-16T17:22:06.517Z,100.00
2022-09-16T17:25:18.632Z,100.00
2022-09-16T17:28:30.685Z,100.00
2022-09-16T17:31:43.529Z,100.00
2022-09-16T17:34:55.345Z,100.00
2022-09-16T17:38:07.859Z,100.00
2022-09-16T17:41:22.507Z,100.00
2022-09-16T17:44:34.737Z,100.00
2022-09-16T17:47:46.572Z,100.00
2022-09-16T17:51:00.153Z,100.00
2022-09-16T17:54:12.850Z,100.00
2022-09-16T17:57:27.989Z,100.00
2022-09-16T18:00:40.428Z,100.00
2022-09-16T18:03:55.762Z,100.00
2022-09-16T18:07:07.789Z,100.00
2022-09-16T18:10:20.009Z,100.00
2022-09-16T18:13:31.963Z,100.00
2022-09-16T18:16:45.545Z,100.00
2022-09-16T18:19:57.369Z,100.00
2022-09-16T18:23:09.383Z,100.00
2022-09-16T18:26:22.937Z,100.00
2022-09-16T18:29:35.663Z,100.00
2022-09-16T18:32:50.564Z,100.00
2022-09-16T18:36:08.735Z,100.00
2022-09-16T18:39:22.108Z,100.00
2022-09-16T18:42:34.277Z,100.00
2022-09-16T18:45:46.506Z,100.00
2022-09-16T18:48:59.974Z,100.00
2022-09-16T18:52:20.510Z,100.00
2022-09-16T18:55:44.435Z,100.00
2022-09-16T18:59:19.988Z,100.00
2022-09-16T19:02:15.034Z,100.00
2022-09-16T19:05:27.511Z,100.00
2022-09-16T19:08:40.168Z,100.00
2022-09-16T19:12:01.533Z,100.00
2022-09-16T19:15:16.629Z,100.00
2022-09-16T19:18:28.782Z,100.00
2022-09-16T19:21:42.171Z,100.00
2022-09-16T19:24:57.084Z,100.00
2022-09-16T19:28:10.697Z,100.00
2022-09-16T19:31:23.582Z,100.00
2022-09-16T19:34:35.746Z,100.00
2022-09-16T19:37:51.180Z,100.00
2022-09-16T19:41:10.915Z,100.00
2022-09-16T19:44:23.808Z,100.00
2022-09-16T19:47:36.622Z,100.00
2022-09-16T19:50:50.349Z,100.00
2022-09-16T19:54:03.132Z,100.00
2022-09-16T19:57:14.920Z,100.00
2022-09-16T20:00:36.712Z,100.00
2022-09-16T20:03:44.068Z,100.00
2022-09-16T20:06:56.424Z,100.00
2022-09-16T20:10:09.140Z,100.00
2022-09-16T20:13:20.822Z,100.00
2022-09-16T20:16:35.750Z,100.00
2022-09-16T20:19:47.866Z,100.00
2022-09-16T20:22:59.768Z,99.83
2022-09-16T20:26:15.101Z,99.82
2022-09-16T20:29:30.023Z,99.43
2022-09-16T20:32:41.699Z,100.00
2022-09-16T20:35:53.306Z,98.83
2022-09-16T20:39:06.180Z,98.36
2022-09-16T20:42:17.982Z,98.70
2022-09-16T20:45:29.907Z,97.89
2022-09-16T20:48:42.486Z,98.23
2022-09-16T20:51:54.553Z,99.35
2022-09-16T20:55:06.447Z,98.07
2022-09-16T20:58:18.349Z,98.61
2022-09-16T21:01:32.730Z,99.06
2022-09-16T21:04:44.569Z,99.14
2022-09-16T21:07:56.431Z,99.45
2022-09-16T21:11:15.611Z,99.86
2022-09-16T21:14:27.611Z,100.00
2022-09-16T21:17:39.479Z,99.77
2022-09-16T21:20:51.287Z,99.64
2022-09-16T21:24:06.665Z,99.54
2022-09-16T21:27:18.306Z,99.64
2022-09-16T21:30:30.761Z,99.21
2022-09-16T21:33:44.715Z,99.20
2022-09-16T21:36:59.389Z,99.29
2022-09-16T21:40:14.216Z,99.65
2022-09-16T21:43:29.881Z,99.80
2022-09-16T21:46:45.428Z,99.23
2022-09-16T21:49:59.146Z,99.90
2022-09-16T21:53:10.803Z,100.00
2022-09-16T21:56:25.941Z,100.00
2022-09-16T21:59:37.771Z,100.00
2022-09-16T22:02:49.520Z,100.00
2022-09-16T22:06:04.919Z,100.00
2022-09-16T22:09:18.115Z,100.00
2022-09-16T22:12:29.987Z,100.00
2022-09-16T22:15:42.572Z,100.00
2022-09-16T22:18:54.702Z,100.00
2022-09-16T22:22:06.296Z,100.00
2022-09-16T22:25:18.448Z,100.00
2022-09-16T22:28:30.157Z,100.00
2022-09-16T22:31:44.642Z,100.00
2022-09-16T22:34:56.472Z,100.00
2022-09-16T22:38:08.442Z,100.00
2022-09-16T22:41:21.651Z,100.00
2022-09-16T22:44:33.406Z,100.00
2022-09-16T22:47:45.346Z,100.00
2022-09-16T22:51:04.003Z,100.00
2022-09-16T22:54:17.607Z,100.00
2022-09-16T22:57:29.815Z,100.00
2022-09-16T23:00:41.588Z,100.00
2022-09-16T23:03:58.057Z,100.00
2022-09-16T23:07:10.310Z,100.00
2022-09-16T23:10:22.210Z,100.00
2022-09-16T23:13:34.055Z,100.00
2022-09-16T23:16:46.013Z,100.00
2022-09-16T23:19:57.875Z,100.00
2022-09-16T23:23:10.118Z,100.00
2022-09-16T23:26:24.178Z,100.00
2022-09-16T23:29:35.901Z,100.00
2022-09-16T23:32:47.680Z,100.00
2022-09-16T23:35:59.776Z,100.00
2022-09-16T23:39:13.502Z,100.00
2022-09-16T23:42:25.500Z,100.00
2022-09-16T23:45:37.224Z,100.00
2022-09-16T23:48:50.965Z,100.00
2022-09-16T23:52:02.567Z,100.00
2022-09-16T23:55:16.276Z,100.00
2022-09-16T23:58:28.531Z,100.00
